Time;durP1;ratioP1;P1;durP2;ratioP2;P2;SDS_P1;SDS_P2;PMS_P1;PMS_P2;Temp;Humidity;BMP_temperature;BMP_pressure;BME280_temperature;BME280_humidity;BME280_pressure;Samples;Min_cycle;Max_cycle;Signal;HPM_P1;HPM_P2
2023/08/15 00:01:51;;;;;;;8.33;5.37;;;;;;;17.61;80.92;97997.16;6222980;28;20239;-46
2023/08/15 00:04:54;;;;;;;6.03;4.77;;;;;;;17.65;80.88;98007.09;6238860;28;20378;-47
2023/08/15 00:07:57;;;;;;;7.57;5.00;;;;;;;17.66;80.23;98003.31;6238333;28;20266;-47
2023/08/15 00:11:00;;;;;;;5.43;4.93;;;;;;;17.60;80.42;98009.03;6234012;28;20791;-44
2023/08/15 00:14:02;;;;;;;6.00;4.67;;;;;;;17.56;80.77;98008.75;6239017;28;20720;-43
2023/08/15 00:17:05;;;;;;;4.87;4.30;;;;;;;17.52;80.84;97997.72;6239529;28;20249;-46
2023/08/15 00:20:08;;;;;;;6.30;4.90;;;;;;;17.51;80.61;98003.41;6238273;28;20227;-43
2023/08/15 00:23:10;;;;;;;6.03;4.93;;;;;;;17.51;80.41;98003.41;6236313;28;20316;-44
2023/08/15 00:26:13;;;;;;;5.77;5.27;;;;;;;17.51;80.52;98001.53;6236349;28;20365;-45
2023/08/15 00:29:16;;;;;;;5.97;5.37;;;;;;;17.50;80.65;97985.63;6219822;28;20231;-48
2023/08/15 00:32:18;;;;;;;5.60;5.13;;;;;;;17.59;79.91;97981.28;6238755;28;20313;-45
2023/08/15 00:35:21;;;;;;;5.50;4.97;;;;;;;17.60;79.93;97992.84;6244773;28;20241;-44
2023/08/15 00:38:23;;;;;;;6.33;5.20;;;;;;;17.57;80.15;97978.03;6243020;28;20241;-45
2023/08/15 00:41:26;;;;;;;5.17;4.77;;;;;;;17.58;80.08;97990.41;6226061;28;20247;-45
2023/08/15 00:44:29;;;;;;;5.90;5.30;;;;;;;17.55;80.68;97982.91;6249667;28;20235;-46
2023/08/15 00:47:33;;;;;;;5.40;4.90;;;;;;;17.59;79.88;97992.06;6238841;28;20221;-48
2023/08/15 00:50:36;;;;;;;5.17;4.77;;;;;;;17.56;80.30;97981.03;6243225;28;20234;-45
2023/08/15 00:53:39;;;;;;;8.90;6.47;;;;;;;17.52;80.61;97981.56;6243585;28;20281;-44
2023/08/15 00:56:42;;;;;;;5.80;5.23;;;;;;;17.47;80.71;97988.88;6243700;28;20230;-45
2023/08/15 00:59:45;;;;;;;6.00;5.10;;;;;;;17.42;80.68;97975.44;6246656;28;20242;-46
2023/08/15 01:02:48;;;;;;;5.43;4.97;;;;;;;17.39;80.55;97974.13;6225957;28;20723;-43
2023/08/15 01:05:51;;;;;;;5.43;4.90;;;;;;;17.35;81.06;97970.38;6244439;28;20234;-46
2023/08/15 01:08:55;;;;;;;5.43;4.93;;;;;;;17.40;80.74;97966.84;6242980;28;20393;-44
2023/08/15 01:12:36;;;;;;;5.60;5.03;;;;;;;17.32;80.79;97970.94;6240358;28;20310;-44
2023/08/15 01:15:44;;;;;;;9.07;5.70;;;;;;;17.31;81.25;97974.72;6240821;28;20263;-43
2023/08/15 01:19:01;;;;;;;6.00;5.17;;;;;;;17.33;81.18;97974.41;6239202;28;20227;-45
2023/08/15 01:22:10;;;;;;;5.60;5.10;;;;;;;17.41;80.32;97968.47;6226154;28;20268;-45
2023/08/15 01:25:13;;;;;;;5.83;5.30;;;;;;;17.27;80.70;97949.41;6244084;28;20242;-44
2023/08/15 01:28:15;;;;;;;5.87;5.37;;;;;;;17.32;80.94;97964.75;6226475;28;20373;-43
2023/08/15 01:31:27;;;;;;;5.30;4.90;;;;;;;17.29;81.13;97974.19;6242165;28;20234;-43
2023/08/15 01:34:40;;;;;;;6.17;5.57;;;;;;;17.20;81.59;97971.28;6242756;28;20322;-45
2023/08/15 01:37:47;;;;;;;7.20;5.73;;;;;;;17.16;82.09;97966.72;6237031;28;20252;-44
2023/08/15 01:40:53;;;;;;;6.40;5.80;;;;;;;17.08;82.25;97962.69;6242973;28;20258;-43
2023/08/15 01:43:57;;;;;;;6.17;5.57;;;;;;;17.08;82.31;97973.47;6243030;28;20331;-44
2023/08/15 01:46:59;;;;;;;6.33;5.57;;;;;;;17.03;83.04;97963.53;6242142;28;20227;-47
2023/08/15 01:50:02;;;;;;;6.97;5.67;;;;;;;17.00;82.94;97966.78;6224375;28;20231;-43
2023/08/15 01:53:04;;;;;;;6.27;5.67;;;;;;;16.93;84.03;97971.66;6223368;28;20230;-43
2023/08/15 01:56:07;;;;;;;7.00;6.40;;;;;;;16.89;84.01;97967.09;6240991;28;20232;-44
2023/08/15 01:59:09;;;;;;;6.33;5.83;;;;;;;16.84;84.31;97965.22;6249372;28;20234;-42
2023/08/15 02:02:11;;;;;;;6.60;5.83;;;;;;;16.85;84.31;97963.38;6240185;28;20235;-46
2023/08/15 02:05:14;;;;;;;9.23;6.30;;;;;;;16.79;84.43;97962.56;6242377;28;20317;-45
2023/08/15 02:08:16;;;;;;;6.47;5.87;;;;;;;16.67;85.84;97959.34;6241710;28;20803;-46
2023/08/15 02:11:19;;;;;;;6.67;6.00;;;;;;;16.62;86.30;97954.78;6242092;28;20250;-43
2023/08/15 02:14:21;;;;;;;6.20;5.70;;;;;;;16.63;86.46;97958.28;6232587;28;20227;-43
2023/08/15 02:17:24;;;;;;;7.47;5.87;;;;;;;16.58;86.94;97952.91;6241038;28;20324;-44
2023/08/15 02:20:31;;;;;;;8.27;6.03;;;;;;;16.53;87.23;97953.75;6238025;28;20238;-43
2023/08/15 02:23:34;;;;;;;7.13;6.43;;;;;;;16.48;88.02;97945.69;6241262;28;20634;-43
2023/08/15 02:26:37;;;;;;;7.67;6.27;;;;;;;16.41;88.33;97947.88;6237251;28;20238;-42
2023/08/15 02:29:39;;;;;;;6.63;6.07;;;;;;;16.37;88.15;97942.22;6229535;28;20232;-44
2023/08/15 02:32:41;;;;;;;6.93;6.37;;;;;;;16.34;88.99;97950.03;6243081;28;20233;-46
2023/08/15 02:35:45;;;;;;;7.10;6.40;;;;;;;16.32;88.33;97950.31;6222521;28;20223;-43
2023/08/15 02:38:47;;;;;;;7.40;6.70;;;;;;;16.30;88.86;97949.75;6240573;28;20235;-43
2023/08/15 02:41:49;;;;;;;7.47;6.77;;;;;;;16.25;89.40;97947.91;6220518;28;20235;-46
2023/08/15 02:44:55;;;;;;;8.07;7.30;;;;;;;16.19;89.81;97942.78;6246451;28;20239;-43
2023/08/15 02:47:57;;;;;;;7.27;6.57;;;;;;;16.20;89.39;97947.88;6240965;28;20706;-45
2023/08/15 02:51:00;;;;;;;7.43;6.73;;;;;;;16.13;89.92;97947.38;6242273;28;20234;-43
2023/08/15 02:54:05;;;;;;;8.27;5.83;;;;;;;16.11;90.03;97944.16;6232562;28;20575;-45
2023/08/15 02:57:08;;;;;;;6.93;6.23;;;;;;;16.12;89.83;97948.44;6239870;28;20210;-43
2023/08/15 03:00:11;;;;;;;6.77;6.17;;;;;;;16.07;90.41;97947.66;6239300;28;20268;-43
2023/08/15 03:03:14;;;;;;;9.00;7.23;;;;;;;15.84;90.19;97917.56;6239613;28;20864;-44
2023/08/15 03:06:17;;;;;;;6.93;6.33;;;;;;;15.97;90.56;97948.47;6237284;28;20588;-45
2023/08/15 03:09:19;;;;;;;9.90;7.20;;;;;;;15.77;91.10;97930.47;6240487;28;20227;-45
2023/08/15 03:12:21;;;;;;;8.17;6.77;;;;;;;15.90;91.18;97955.97;6239923;28;20719;-45
2023/08/15 03:15:24;;;;;;;6.97;6.27;;;;;;;15.71;91.18;97923.47;6238146;28;20215;-44
2023/08/15 03:18:27;;;;;;;7.17;6.57;;;;;;;15.84;91.19;97952.50;6240257;28;20236;-46
2023/08/15 03:21:30;;;;;;;7.60;6.80;;;;;;;15.77;91.49;97943.09;6221357;28;20272;-43
2023/08/15 03:24:32;;;;;;;7.67;6.87;;;;;;;15.42;91.60;97896.34;6239234;28;20235;-43
2023/08/15 03:27:35;;;;;;;8.50;7.80;;;;;;;15.70;92.28;97951.41;6238146;28;20238;-43
2023/08/15 03:30:37;;;;;;;8.60;7.20;;;;;;;15.69;92.65;97947.91;6236306;28;20219;-44
2023/08/15 03:33:41;;;;;;;8.03;7.23;;;;;;;15.66;92.66;97948.47;6240504;28;20402;-44
2023/08/15 03:36:45;;;;;;;8.23;7.43;;;;;;;15.63;93.36;97951.69;6223574;28;20219;-43
2023/08/15 03:39:47;;;;;;;8.40;7.70;;;;;;;15.61;93.59;97955.66;6240019;28;20305;-45
2023/08/15 03:42:50;;;;;;;8.57;7.57;;;;;;;15.43;94.34;97955.13;6220407;28;20230;-44
2023/08/15 03:45:52;;;;;;;8.57;7.77;;;;;;;15.55;94.30;97959.44;6227006;28;20222;-44
2023/08/15 03:48:55;;;;;;;8.00;7.20;;;;;;;15.46;94.39;97946.53;6240373;28;20245;-45
2023/08/15 03:51:57;;;;;;;8.73;7.93;;;;;;;15.56;94.42;97958.34;6230377;28;20240;-46
2023/08/15 03:55:00;;;;;;;8.10;7.40;;;;;;;15.52;94.81;97965.31;6222643;28;20713;-44
2023/08/15 03:58:03;;;;;;;9.00;8.10;;;;;;;15.38;95.10;97955.13;6221853;28;20231;-43
2023/08/15 04:01:05;;;;;;;8.47;7.60;;;;;;;15.52;95.07;97971.53;6236566;28;20242;-44
2023/08/15 04:04:08;;;;;;;9.80;8.90;;;;;;;15.50;95.41;97968.28;6236221;28;20731;-43
2023/08/15 04:07:10;;;;;;;9.40;8.60;;;;;;;15.46;95.67;97965.31;6220754;28;20235;-44
2023/08/15 04:10:13;;;;;;;8.77;7.97;;;;;;;15.41;95.60;97961.81;6242030;28;20611;-45
2023/08/15 04:13:15;;;;;;;9.00;8.10;;;;;;;15.47;95.74;97966.16;6227102;28;20316;-45
2023/08/15 04:16:19;;;;;;;8.33;7.63;;;;;;;15.44;95.94;97964.78;6250115;28;20239;-45
2023/08/15 04:19:22;;;;;;;8.43;7.73;;;;;;;15.44;96.01;97969.34;6242521;28;20713;-48
2023/08/15 04:22:24;;;;;;;9.43;8.50;;;;;;;15.40;96.75;97962.91;6225117;28;20325;-47
2023/08/15 04:25:27;;;;;;;10.13;9.20;;;;;;;15.37;96.72;97966.94;6243926;28;20247;-47
2023/08/15 04:28:32;;;;;;;9.10;8.30;;;;;;;15.25;96.79;97950.25;6241364;28;20772;-45
2023/08/15 04:31:35;;;;;;;9.70;8.80;;;;;;;15.38;96.96;97962.38;6244906;28;20735;-44
2023/08/15 04:34:38;;;;;;;9.20;8.40;;;;;;;15.26;97.20;97949.16;6245314;28;20596;-49
2023/08/15 04:37:41;;;;;;;9.93;8.53;;;;;;;15.37;97.57;97960.72;6226006;28;20241;-46
2023/08/15 04:40:44;;;;;;;9.17;8.43;;;;;;;15.38;97.65;97963.16;6226802;28;20230;-43
2023/08/15 04:43:47;;;;;;;9.57;8.67;;;;;;;15.38;98.15;97959.69;6243840;28;20242;-46
2023/08/15 04:46:49;;;;;;;9.60;8.60;;;;;;;15.13;98.06;97920.97;6244818;28;20711;-43
2023/08/15 04:49:52;;;;;;;9.00;8.20;;;;;;;15.35;98.36;97958.31;6227434;28;20317;-42
2023/08/15 04:52:54;;;;;;;10.17;9.23;;;;;;;15.34;99.65;97954.03;6241112;28;20231;-42
2023/08/15 04:55:57;;;;;;;10.17;9.10;;;;;;;15.34;99.45;97961.28;6225903;28;20230;-44
2023/08/15 04:59:00;;;;;;;10.00;9.10;;;;;;;15.35;99.58;97970.94;6226497;28;20242;-45
2023/08/15 05:02:02;;;;;;;10.73;9.50;;;;;;;15.35;99.57;97963.69;6244167;28;20238;-42
2023/08/15 05:05:06;;;;;;;9.80;8.90;;;;;;;15.38;100.00;97967.75;6241568;28;20228;-43
2023/08/15 05:08:09;;;;;;;10.73;9.83;;;;;;;15.41;100.00;97964.50;6226653;28;20730;-44
2023/08/15 05:11:11;;;;;;;10.17;9.27;;;;;;;15.45;100.00;97965.59;6242887;28;20579;-46
2023/08/15 05:14:15;;;;;;;10.60;9.70;;;;;;;15.46;100.00;97956.47;6242506;28;20321;-46
2023/08/15 05:17:17;;;;;;;9.87;8.93;;;;;;;15.45;100.00;97961.03;6242438;28;20239;-43
2023/08/15 05:20:20;;;;;;;10.17;9.23;;;;;;;15.51;100.00;97969.88;6224388;28;20243;-46
2023/08/15 05:23:22;;;;;;;10.17;9.27;;;;;;;15.54;100.00;97958.63;6246790;28;20234;-43
2023/08/15 05:26:26;;;;;;;9.87;9.07;;;;;;;15.59;100.00;97957.81;6230389;28;20708;-46
2023/08/15 05:29:28;;;;;;;10.27;9.27;;;;;;;15.60;100.00;97959.44;6246068;28;20235;-43
2023/08/15 05:32:31;;;;;;;10.60;9.70;;;;;;;15.61;100.00;97964.53;6247759;28;20231;-44
2023/08/15 05:35:34;;;;;;;11.03;10.03;;;;;;;15.62;100.00;97960.00;6220527;28;20377;-45
2023/08/15 05:38:36;;;;;;;10.00;9.10;;;;;;;15.69;100.00;97969.41;6241816;28;20301;-44
2023/08/15 05:41:39;;;;;;;10.77;9.77;;;;;;;15.73;100.00;97975.88;6240897;28;20227;-42
2023/08/15 05:44:42;;;;;;;9.60;8.80;;;;;;;15.78;100.00;97968.88;6231720;28;20716;-44
2023/08/15 05:47:44;;;;;;;11.97;10.03;;;;;;;15.65;100.00;97946.84;6247123;28;20239;-45
2023/08/15 05:50:48;;;;;;;10.80;9.90;;;;;;;15.87;100.00;97970.78;6242614;28;20720;-43
2023/08/15 05:53:54;;;;;;;10.83;9.93;;;;;;;15.94;100.00;97971.28;6238055;28;20222;-46
2023/08/15 05:56:58;;;;;;;11.27;10.27;;;;;;;16.02;100.00;97978.03;6238820;28;20293;-45
2023/08/15 06:00:04;;;;;;;10.77;9.83;;;;;;;16.10;100.00;97972.09;6241827;28;20358;-43
2023/08/15 06:03:13;;;;;;;10.17;9.27;;;;;;;16.19;100.00;97977.72;6241461;28;20351;-44
2023/08/15 06:06:15;;;;;;;10.53;9.57;;;;;;;16.25;100.00;97972.09;6239868;28;20733;-43
2023/08/15 06:09:18;;;;;;;10.53;9.60;;;;;;;16.33;100.00;97976.09;6241716;28;20651;-43
2023/08/15 06:12:20;;;;;;;10.73;9.70;;;;;;;16.42;100.00;97970.97;6239852;28;20219;-44
2023/08/15 06:15:22;;;;;;;10.47;9.57;;;;;;;16.51;100.00;97975.53;6242213;28;20362;-44
2023/08/15 06:18:25;;;;;;;10.73;9.83;;;;;;;16.59;100.00;97963.41;6245043;28;20231;-45
2023/08/15 06:21:27;;;;;;;11.37;10.27;;;;;;;16.80;100.00;97977.63;6220329;28;20222;-45
2023/08/15 06:24:30;;;;;;;10.90;10.00;;;;;;;16.94;100.00;97972.44;6241009;28;20875;-43
2023/08/15 06:27:32;;;;;;;10.97;9.97;;;;;;;17.17;100.00;97974.50;6232505;28;20599;-43
2023/08/15 06:30:41;;;;;;;9.77;9.03;;;;;;;17.34;100.00;97976.84;6242387;28;20227;-46
2023/08/15 06:33:45;;;;;;;11.67;9.47;;;;;;;17.47;100.00;97972.72;6241956;28;20227;-46
2023/08/15 06:36:48;;;;;;;10.43;9.53;;;;;;;17.62;100.00;97961.84;6240704;28;20227;-45
2023/08/15 06:39:51;;;;;;;9.67;8.87;;;;;;;17.80;98.75;97955.00;6239691;28;20231;-44
2023/08/15 06:42:53;;;;;;;8.53;7.83;;;;;;;18.43;93.21;97971.16;6240595;28;20243;-45
2023/08/15 06:45:56;;;;;;;8.37;7.63;;;;;;;18.66;91.91;97968.75;6240370;28;20231;-43
2023/08/15 06:48:58;;;;;;;8.77;7.97;;;;;;;18.79;91.54;97978.91;6241179;28;20242;-47
2023/08/15 06:52:01;;;;;;;8.23;7.53;;;;;;;18.96;89.28;97973.81;6235558;28;20234;-44
2023/08/15 06:55:07;;;;;;;8.10;7.30;;;;;;;19.17;88.36;97974.38;6235591;28;20235;-42
2023/08/15 06:58:17;;;;;;;7.90;7.13;;;;;;;19.38;86.26;97969.50;6223480;28;20924;-42
2023/08/15 07:01:23;;;;;;;7.93;7.23;;;;;;;19.83;82.21;97973.44;6236176;28;20726;-42
2023/08/15 07:04:26;;;;;;;7.50;6.80;;;;;;;19.96;82.61;97971.09;6245842;28;20240;-44
2023/08/15 07:07:28;;;;;;;7.23;6.53;;;;;;;20.04;82.81;97959.59;6242830;28;20724;-45
2023/08/15 07:10:32;;;;;;;6.97;6.37;;;;;;;20.24;80.62;97974.66;6241155;28;20704;-46
2023/08/15 07:13:36;;;;;;;7.17;6.57;;;;;;;20.43;79.78;97977.31;6240845;28;20243;-44
2023/08/15 07:16:38;;;;;;;7.07;6.33;;;;;;;20.52;79.47;97976.34;6236873;28;20242;-45
2023/08/15 07:19:42;;;;;;;7.00;6.27;;;;;;;20.79;77.63;97978.28;6246064;28;20367;-44
2023/08/15 07:22:45;;;;;;;7.30;6.50;;;;;;;20.87;78.62;97983.00;6240105;28;20712;-44
2023/08/15 07:25:48;;;;;;;7.63;7.03;;;;;;;21.07;76.41;97983.69;6239455;28;20770;-43
2023/08/15 07:28:54;;;;;;;7.20;6.60;;;;;;;21.17;77.02;97988.88;6241098;28;20622;-45
2023/08/15 07:31:58;;;;;;;7.03;6.40;;;;;;;21.28;77.49;97993.00;6233858;28;20219;-47
2023/08/15 07:35:05;;;;;;;7.27;6.33;;;;;;;21.46;76.10;97985.06;6245573;28;21119;-45
2023/08/15 07:38:08;;;;;;;7.13;6.57;;;;;;;21.57;76.08;97970.16;6237647;28;20231;-45
2023/08/15 07:41:11;;;;;;;6.30;5.80;;;;;;;21.83;75.41;97987.47;6231853;28;20629;-45
2023/08/15 07:44:12;;;;;;;6.60;6.00;;;;;;;21.95;76.21;97978.75;6242590;28;20278;-44
2023/08/15 07:47:14;;;;;;;6.90;6.30;;;;;;;22.06;74.95;97987.44;6240381;28;20253;-45
2023/08/15 07:50:27;;;;;;;6.70;6.10;;;;;;;22.17;75.39;97980.72;6237106;28;20242;-44
2023/08/15 07:53:30;;;;;;;7.60;5.70;;;;;;;22.26;74.53;97984.25;6236636;28;20227;-45
2023/08/15 07:56:33;;;;;;;6.53;6.03;;;;;;;22.30;74.86;97979.81;6239367;28;20320;-44
2023/08/15 07:59:35;;;;;;;6.43;5.83;;;;;;;22.33;75.03;97965.63;6240228;28;20309;-45
2023/08/15 08:02:37;;;;;;;6.53;5.90;;;;;;;22.52;74.56;97976.25;6239631;28;20231;-44
2023/08/15 08:05:40;;;;;;;6.60;5.90;;;;;;;22.52;74.72;97978.97;6240667;28;20337;-44
2023/08/15 08:08:42;;;;;;;8.53;6.33;;;;;;;22.53;74.58;97956.13;6236866;28;20234;-45
2023/08/15 08:11:44;;;;;;;6.60;6.03;;;;;;;22.72;74.57;97976.81;6236979;28;20309;-45
2023/08/15 08:14:46;;;;;;;6.88;6.25;;;;;;;22.86;73.49;97964.75;6222334;28;20242;-46
2023/08/15 08:17:58;;;;;;;6.47;5.80;;;;;;;22.94;73.45;97965.88;6235299;28;20258;-43
2023/08/15 08:21:01;;;;;;;5.75;5.22;;;;;;;23.21;70.28;97969.50;6222096;28;20227;-46
2023/08/15 08:24:03;;;;;;;6.53;5.95;;;;;;;23.30;71.53;97967.56;6239912;28;20370;-44
2023/08/15 08:27:05;;;;;;;6.70;6.18;;;;;;;23.35;71.32;97967.41;6235803;28;20225;-45
2023/08/15 08:30:08;;;;;;;6.45;5.78;;;;;;;23.55;69.91;97977.69;6237574;28;20901;-46
2023/08/15 08:33:10;;;;;;;7.95;5.82;;;;;;;23.87;65.43;97965.53;6235653;28;20219;-44
2023/08/15 08:36:12;;;;;;;7.15;5.43;;;;;;;23.99;66.96;97975.78;6234129;28;20227;-46
2023/08/15 08:39:14;;;;;;;6.60;5.80;;;;;;;23.97;68.37;97974.50;6243636;28;20289;-46
2023/08/15 08:42:34;;;;;;;6.22;5.63;;;;;;;24.03;65.35;97965.03;6236927;28;20769;-46
2023/08/15 08:45:42;;;;;;;6.45;5.70;;;;;;;24.17;68.00;97971.09;6238349;28;20230;-46
2023/08/15 08:48:46;;;;;;;7.15;5.60;;;;;;;24.35;63.32;97964.50;6221280;28;20323;-44
2023/08/15 08:51:50;;;;;;;5.55;5.00;;;;;;;24.52;59.52;97962.84;6240022;28;20232;-43
2023/08/15 08:54:52;;;;;;;6.10;5.50;;;;;;;24.58;63.38;97956.94;6232324;28;20597;-47
2023/08/15 08:58:02;;;;;;;6.38;5.38;;;;;;;24.68;63.24;97970.19;6242635;28;20313;-44
2023/08/15 09:01:05;;;;;;;5.80;5.30;;;;;;;24.57;64.67;97951.78;6242591;28;20239;-43
2023/08/15 09:04:07;;;;;;;5.70;5.30;;;;;;;24.75;61.52;97950.59;6242877;28;20226;-45
2023/08/15 09:07:10;;;;;;;6.85;4.97;;;;;;;24.85;64.84;97969.28;6248315;28;20266;-44
2023/08/15 09:10:14;;;;;;;6.35;5.75;;;;;;;24.89;65.51;97966.72;6241777;28;20231;-47
2023/08/15 09:13:25;;;;;;;5.90;5.25;;;;;;;25.17;61.57;97967.06;6238399;28;20242;-44
2023/08/15 09:16:27;;;;;;;4.97;4.53;;;;;;;25.19;61.86;97964.81;6237441;28;20242;-47
2023/08/15 09:19:40;;;;;;;7.70;5.13;;;;;;;25.31;59.05;97955.91;6242532;28;20619;-59
2023/08/15 09:22:45;;;;;;;5.05;4.55;;;;;;;25.32;61.76;97952.88;6242477;28;20346;-53
2023/08/15 09:25:48;;;;;;;5.95;5.30;;;;;;;25.30;63.64;97952.38;6243308;28;20247;-56
2023/08/15 09:28:51;;;;;;;5.22;4.82;;;;;;;25.25;62.51;97947.13;6234524;28;20235;-57
2023/08/15 09:31:53;;;;;;;5.70;4.60;;;;;;;25.46;58.21;97942.47;6243127;28;20243;-55
2023/08/15 09:34:55;;;;;;;5.72;5.22;;;;;;;25.60;59.73;97942.19;6241003;28;20306;-57
2023/08/15 09:37:58;;;;;;;9.13;5.28;;;;;;;25.74;58.68;97944.66;6230809;28;20242;-58
2023/08/15 09:41:00;;;;;;;6.53;5.18;;;;;;;26.06;53.68;97937.66;6241770;28;20238;-53
2023/08/15 09:44:03;;;;;;;5.00;4.60;;;;;;;26.08;53.64;97926.38;6244074;28;20231;-55
2023/08/15 09:47:10;;;;;;;5.20;4.78;;;;;;;26.34;52.94;97942.47;6227932;28;20274;-57
2023/08/15 09:50:18;;;;;;;6.43;5.13;;;;;;;26.29;57.27;97946.22;6220081;28;20236;-56
2023/08/15 09:53:23;;;;;;;5.13;4.72;;;;;;;26.39;53.67;97926.66;6247934;28;20231;-57
2023/08/15 09:56:26;;;;;;;6.80;4.97;;;;;;;26.38;55.16;97935.22;6244554;28;20775;-57
2023/08/15 09:59:30;;;;;;;7.45;5.05;;;;;;;26.56;55.08;97935.84;6242463;28;20239;-57
2023/08/15 10:02:43;;;;;;;6.57;5.63;;;;;;;26.65;55.58;97931.88;6241703;28;20234;-57
2023/08/15 10:05:58;;;;;;;5.68;5.15;;;;;;;26.95;53.81;97923.44;6235519;28;20784;-56
2023/08/15 10:09:03;;;;;;;9.68;5.60;;;;;;;27.09;55.17;97928.53;6223296;28;20231;-57
2023/08/15 10:12:07;;;;;;;5.72;5.00;;;;;;;27.08;49.40;97930.50;6238738;28;20212;-57
2023/08/15 10:15:12;;;;;;;5.65;4.53;;;;;;;27.10;53.31;97930.97;6242691;28;20593;-50
2023/08/15 10:18:14;;;;;;;6.38;5.75;;;;;;;27.32;50.10;97946.06;6241926;28;20728;-56
2023/08/15 10:21:16;;;;;;;5.43;5.00;;;;;;;27.45;45.37;97935.91;6237865;28;20294;-58
2023/08/15 10:24:19;;;;;;;6.28;5.50;;;;;;;27.47;46.79;97934.41;6246507;28;20588;-56
2023/08/15 10:27:25;;;;;;;5.95;4.80;;;;;;;27.37;47.94;97915.72;6241304;28;20308;-54
2023/08/15 10:30:37;;;;;;;5.97;5.05;;;;;;;27.27;50.53;97935.38;6238020;28;20223;-57
2023/08/15 10:33:41;;;;;;;6.18;5.57;;;;;;;27.28;51.77;97923.28;6245619;28;20823;-57
2023/08/15 10:36:45;;;;;;;6.88;4.80;;;;;;;27.26;50.30;97923.63;6242244;28;20800;-57
2023/08/15 10:40:08;;;;;;;5.47;4.97;;;;;;;27.41;46.47;97922.09;6248196;28;20524;-58
2023/08/15 10:43:15;;;;;;;4.72;4.30;;;;;;;27.62;46.13;97926.59;6238460;28;20314;-55
2023/08/15 10:46:25;;;;;;;5.80;5.25;;;;;;;27.63;50.48;97918.03;6241392;28;20234;-56
2023/08/15 10:49:28;;;;;;;5.68;4.32;;;;;;;27.66;48.51;97925.56;6246441;28;20238;-58
2023/08/15 10:52:31;;;;;;;5.93;4.53;;;;;;;27.75;49.51;97906.28;6246760;28;20230;-55
2023/08/15 10:55:38;;;;;;;8.35;6.15;;;;;;;27.73;50.72;97920.31;6248322;28;20630;-56
2023/08/15 10:58:41;;;;;;;4.90;4.40;;;;;;;27.77;44.08;97893.81;6240770;28;20250;-57
2023/08/15 11:01:45;;;;;;;5.78;4.50;;;;;;;27.96;44.78;97903.31;6237185;28;20326;-58
2023/08/15 11:04:50;;;;;;;5.15;4.68;;;;;;;28.31;43.51;97919.09;6240191;28;20223;-58
2023/08/15 11:07:54;;;;;;;5.13;4.72;;;;;;;28.30;45.83;97912.81;6240890;28;20239;-58
2023/08/15 11:10:57;;;;;;;5.22;4.55;;;;;;;28.28;47.33;97932.38;6239847;28;20369;-57
2023/08/15 11:14:00;;;;;;;6.97;4.63;;;;;;;28.43;42.66;97922.59;6237779;28;20334;-57
2023/08/15 11:17:02;;;;;;;4.40;3.97;;;;;;;28.40;43.37;97934.25;6239366;28;20250;-57
2023/08/15 11:20:05;;;;;;;5.05;4.65;;;;;;;28.40;42.65;97912.31;6238748;28;20245;-57
2023/08/15 11:23:08;;;;;;;4.85;4.45;;;;;;;28.48;43.23;97916.84;6236766;28;20248;-57
2023/08/15 11:26:16;;;;;;;9.23;5.15;;;;;;;28.40;45.55;97909.59;6247242;28;20239;-56
2023/08/15 11:29:18;;;;;;;5.28;4.78;;;;;;;28.44;43.89;97915.97;6240024;28;20257;-57
2023/08/15 11:32:24;;;;;;;5.45;4.80;;;;;;;28.81;41.13;97918.41;6239475;28;20235;-57
2023/08/15 11:35:26;;;;;;;5.18;4.70;;;;;;;28.72;41.37;97907.63;6235862;28;20263;-57
2023/08/15 11:38:30;;;;;;;5.03;4.50;;;;;;;28.69;43.49;97907.53;6239759;28;20274;-57
2023/08/15 11:41:33;;;;;;;4.75;4.35;;;;;;;28.64;42.83;97913.31;6239576;28;20597;-57
2023/08/15 11:44:38;;;;;;;5.40;4.82;;;;;;;28.65;46.45;97907.44;6235887;28;20258;-52
2023/08/15 11:47:56;;;;;;;5.38;4.88;;;;;;;28.66;44.07;97903.56;6233721;28;20238;-56
2023/08/15 11:51:02;;;;;;;6.55;4.45;;;;;;;28.81;42.44;97893.72;6239063;28;20292;-56
2023/08/15 11:54:09;;;;;;;5.28;4.78;;;;;;;28.91;41.13;97908.81;6239654;28;20224;-56
2023/08/15 11:57:11;;;;;;;5.30;4.20;;;;;;;28.82;39.91;97902.72;6238780;28;20206;-53
2023/08/15 12:00:20;;;;;;;5.40;4.82;;;;;;;28.90;40.04;97891.59;6239148;28;20250;-57
2023/08/15 12:03:27;;;;;;;6.03;4.97;;;;;;;28.86;41.60;97887.16;6238328;28;20224;-56
2023/08/15 12:06:29;;;;;;;5.10;4.40;;;;;;;28.85;41.70;97872.66;6217501;28;21767;-57
2023/08/15 12:09:32;;;;;;;5.10;4.47;;;;;;;28.89;42.01;97889.19;6236886;28;20888;-57
2023/08/15 12:12:42;;;;;;;4.85;4.40;;;;;;;28.96;42.74;97890.16;6234853;28;20233;-56
2023/08/15 12:15:45;;;;;;;5.75;4.68;;;;;;;28.86;42.74;97882.47;6238227;28;20274;-58
2023/08/15 12:18:47;;;;;;;4.93;4.40;;;;;;;28.90;41.79;97886.09;6239602;28;20240;-57
2023/08/15 12:21:50;;;;;;;5.35;4.85;;;;;;;28.91;42.54;97886.88;6239642;28;20235;-57
2023/08/15 12:24:53;;;;;;;6.00;4.57;;;;;;;28.93;41.88;97881.84;6236523;28;20242;-56
2023/08/15 12:27:56;;;;;;;5.20;4.70;;;;;;;28.91;42.66;97881.41;6231396;28;20238;-55
2023/08/15 12:30:59;;;;;;;5.72;4.72;;;;;;;28.92;41.99;97881.06;6237194;28;20266;-56
2023/08/15 12:34:02;;;;;;;5.10;4.60;;;;;;;28.84;41.87;97864.78;6244684;28;20266;-56
2023/08/15 12:37:04;;;;;;;5.18;4.63;;;;;;;28.80;42.06;97876.47;6242879;28;20396;-57
2023/08/15 12:40:10;;;;;;;4.53;4.20;;;;;;;28.75;43.01;97884.97;6244705;28;20237;-57
2023/08/15 12:43:32;;;;;;;6.85;4.45;;;;;;;28.81;41.87;97880.00;6240773;28;20700;-57
2023/08/15 12:46:34;;;;;;;4.93;4.53;;;;;;;28.86;43.89;97867.97;6242499;28;20322;-54
2023/08/15 12:49:38;;;;;;;5.05;4.53;;;;;;;28.64;43.83;97848.28;6243744;28;20739;-57
2023/08/15 12:52:43;;;;;;;5.35;4.38;;;;;;;28.85;42.53;97864.44;6240667;28;20590;-55
2023/08/15 12:55:45;;;;;;;6.55;4.35;;;;;;;28.93;40.46;97866.19;6243306;28;20312;-57
2023/08/15 12:58:48;;;;;;;6.10;4.55;;;;;;;28.87;41.89;97875.84;6219700;28;20227;-57
2023/08/15 13:01:50;;;;;;;5.03;4.28;;;;;;;28.76;43.50;97880.28;6238344;28;20235;-56
2023/08/15 13:04:53;;;;;;;5.57;4.90;;;;;;;28.75;42.21;97860.28;6225882;28;20334;-57
2023/08/15 13:07:55;;;;;;;4.82;4.40;;;;;;;28.59;44.11;97865.03;6243804;28;20235;-57
2023/08/15 13:10:58;;;;;;;4.72;4.32;;;;;;;28.70;42.91;97862.53;6240699;28;20589;-56
2023/08/15 13:14:01;;;;;;;5.07;4.57;;;;;;;28.63;42.50;97862.38;6244468;28;20251;-57
2023/08/15 13:17:04;;;;;;;4.78;4.38;;;;;;;28.72;41.19;97860.22;6241963;28;20343;-57
2023/08/15 13:20:07;;;;;;;6.35;4.70;;;;;;;28.71;42.04;97858.63;6245117;28;20231;-57
2023/08/15 13:23:10;;;;;;;8.25;4.60;;;;;;;28.67;40.45;97853.06;6234878;28;20271;-56
2023/08/15 13:26:12;;;;;;;4.90;4.50;;;;;;;28.73;41.24;97859.88;6247703;28;20366;-52
2023/08/15 13:29:15;;;;;;;8.32;4.50;;;;;;;28.65;42.36;97863.59;6242183;28;20402;-57
2023/08/15 13:32:17;;;;;;;6.72;4.65;;;;;;;28.57;41.75;97852.81;6241615;28;20326;-57
2023/08/15 13:35:20;;;;;;;4.43;4.10;;;;;;;28.52;41.23;97846.47;6244602;28;20235;-55
2023/08/15 13:38:22;;;;;;;4.82;4.43;;;;;;;28.63;42.21;97854.94;6225074;28;20319;-56
2023/08/15 13:41:25;;;;;;;5.95;4.45;;;;;;;28.61;41.96;97859.16;6240866;28;20233;-54
2023/08/15 13:44:27;;;;;;;5.50;4.30;;;;;;;28.57;42.10;97850.84;6208563;28;20617;-56
2023/08/15 13:47:29;;;;;;;4.93;4.53;;;;;;;28.49;42.25;97847.16;6223683;28;20677;-57
2023/08/15 13:50:32;;;;;;;5.00;4.50;;;;;;;28.48;41.45;97848.31;6239571;28;20294;-56
2023/08/15 13:53:34;;;;;;;5.05;4.60;;;;;;;28.42;41.84;97840.72;6216910;28;20240;-57
2023/08/15 13:56:37;;;;;;;7.38;4.38;;;;;;;28.39;43.52;97838.69;6217884;28;20251;-57
2023/08/15 13:59:39;;;;;;;5.18;4.40;;;;;;;28.32;43.00;97844.75;6241999;28;20232;-57
2023/08/15 14:02:43;;;;;;;4.47;4.07;;;;;;;28.31;43.15;97834.94;6225518;28;20241;-55
2023/08/15 14:05:46;;;;;;;5.43;4.30;;;;;;;28.31;43.14;97840.44;6241044;28;20716;-56
2023/08/15 14:08:49;;;;;;;5.00;4.60;;;;;;;28.28;42.38;97827.44;6239653;28;20267;-57
2023/08/15 14:11:51;;;;;;;5.03;4.50;;;;;;;28.24;43.56;97829.31;6221375;28;20849;-56
2023/08/15 14:14:55;;;;;;;5.57;4.97;;;;;;;28.17;43.75;97824.44;6222479;28;20311;-56
2023/08/15 14:17:57;;;;;;;6.00;4.53;;;;;;;28.14;44.00;97818.88;6240837;28;20251;-56
2023/08/15 14:21:01;;;;;;;4.82;4.38;;;;;;;28.07;44.01;97824.97;6223444;28;20262;-55
2023/08/15 14:24:04;;;;;;;5.03;4.07;;;;;;;28.03;44.15;97819.41;6237957;28;20285;-55